sensor_id;sensor_type;location;lat;lon;timestamp;P1;durP1;ratioP1;P2;durP2;ratioP2
43297;SDS011;28892;55.640;37.532;2023-04-25T00:00:12;6.95;;;4.88;;
43297;SDS011;28892;55.640;37.532;2023-04-25T00:02:39;11.65;;;4.47;;
43297;SDS011;28892;55.640;37.532;2023-04-25T00:05:05;10.63;;;3.30;;
43297;SDS011;28892;55.640;37.532;2023-04-25T00:07:31;7.38;;;3.78;;
43297;SDS011;28892;55.640;37.532;2023-04-25T00:09:58;6.13;;;3.55;;
43297;SDS011;28892;55.640;37.532;2023-04-25T00:12:24;11.95;;;3.80;;
43297;SDS011;28892;55.640;37.532;2023-04-25T00:14:50;43.30;;;5.50;;
43297;SDS011;28892;55.640;37.532;2023-04-25T00:17:16;10.25;;;3.80;;
43297;SDS011;28892;55.640;37.532;2023-04-25T00:19:42;4.78;;;3.25;;
43297;SDS011;28892;55.640;37.532;2023-04-25T00:22:10;7.00;;;4.10;;
43297;SDS011;28892;55.640;37.532;2023-04-25T00:24:37;8.95;;;4.60;;
43297;SDS011;28892;55.640;37.532;2023-04-25T00:27:03;9.93;;;4.50;;
43297;SDS011;28892;55.640;37.532;2023-04-25T00:29:29;8.50;;;4.70;;
43297;SDS011;28892;55.640;37.532;2023-04-25T00:31:54;7.03;;;4.78;;
43297;SDS011;28892;55.640;37.532;2023-04-25T00:34:21;8.10;;;5.35;;
43297;SDS011;28892;55.640;37.532;2023-04-25T00:36:46;9.20;;;4.95;;
43297;SDS011;28892;55.640;37.532;2023-04-25T00:39:12;8.82;;;5.50;;
43297;SDS011;28892;55.640;37.532;2023-04-25T00:41:38;7.57;;;5.05;;
43297;SDS011;28892;55.640;37.532;2023-04-25T00:44:05;12.05;;;5.38;;
43297;SDS011;28892;55.640;37.532;2023-04-25T00:46:32;9.65;;;5.45;;
43297;SDS011;28892;55.640;37.532;2023-04-25T00:48:58;12.00;;;5.53;;
43297;SDS011;28892;55.640;37.532;2023-04-25T00:51:24;14.32;;;5.18;;
43297;SDS011;28892;55.640;37.532;2023-04-25T00:53:51;9.57;;;5.20;;
43297;SDS011;28892;55.640;37.532;2023-04-25T00:56:18;12.00;;;4.90;;
43297;SDS011;28892;55.640;37.532;2023-04-25T00:58:44;8.00;;;4.65;;
43297;SDS011;28892;55.640;37.532;2023-04-25T01:01:11;11.70;;;4.63;;
43297;SDS011;28892;55.640;37.532;2023-04-25T01:03:38;10.73;;;5.18;;
43297;SDS011;28892;55.640;37.532;2023-04-25T01:06:11;12.70;;;5.80;;
43297;SDS011;28892;55.640;37.532;2023-04-25T01:08:37;10.77;;;5.53;;
43297;SDS011;28892;55.640;37.532;2023-04-25T01:11:05;9.82;;;5.90;;
43297;SDS011;28892;55.640;37.532;2023-04-25T01:13:31;9.02;;;6.13;;
43297;SDS011;28892;55.640;37.532;2023-04-25T01:15:58;11.85;;;6.25;;
43297;SDS011;28892;55.640;37.532;2023-04-25T01:18:25;11.75;;;6.07;;
43297;SDS011;28892;55.640;37.532;2023-04-25T01:20:51;8.15;;;5.43;;
43297;SDS011;28892;55.640;37.532;2023-04-25T01:23:20;10.77;;;5.90;;
43297;SDS011;28892;55.640;37.532;2023-04-25T01:25:47;6.95;;;5.70;;
43297;SDS011;28892;55.640;37.532;2023-04-25T01:28:15;11.73;;;6.15;;
43297;SDS011;28892;55.640;37.532;2023-04-25T01:30:41;8.60;;;5.50;;
43297;SDS011;28892;55.640;37.532;2023-04-25T01:33:08;10.32;;;6.35;;
43297;SDS011;28892;55.640;37.532;2023-04-25T01:35:34;10.18;;;5.70;;
43297;SDS011;28892;55.640;37.532;2023-04-25T01:38:00;9.68;;;5.95;;
43297;SDS011;28892;55.640;37.532;2023-04-25T01:40:26;14.20;;;5.88;;
43297;SDS011;28892;55.640;37.532;2023-04-25T01:42:53;7.57;;;5.95;;
43297;SDS011;28892;55.640;37.532;2023-04-25T01:45:20;9.68;;;6.60;;
43297;SDS011;28892;55.640;37.532;2023-04-25T01:47:47;8.68;;;5.95;;
43297;SDS011;28892;55.640;37.532;2023-04-25T01:50:15;7.30;;;5.43;;
43297;SDS011;28892;55.640;37.532;2023-04-25T01:52:43;8.40;;;5.18;;
43297;SDS011;28892;55.640;37.532;2023-04-25T01:55:10;9.38;;;5.28;;
43297;SDS011;28892;55.640;37.532;2023-04-25T01:57:40;8.02;;;4.75;;
43297;SDS011;28892;55.640;37.532;2023-04-25T02:00:07;9.07;;;5.05;;
43297;SDS011;28892;55.640;37.532;2023-04-25T02:02:41;9.80;;;5.32;;
43297;SDS011;28892;55.640;37.532;2023-04-25T02:05:18;10.52;;;5.05;;
43297;SDS011;28892;55.640;37.532;2023-04-25T02:07:45;16.30;;;5.93;;
43297;SDS011;28892;55.640;37.532;2023-04-25T02:10:11;6.80;;;4.95;;
43297;SDS011;28892;55.640;37.532;2023-04-25T02:12:49;8.60;;;5.18;;
43297;SDS011;28892;55.640;37.532;2023-04-25T02:15:33;6.30;;;5.20;;
43297;SDS011;28892;55.640;37.532;2023-04-25T02:18:29;9.30;;;5.50;;
43297;SDS011;28892;55.640;37.532;2023-04-25T02:21:00;10.65;;;5.55;;
43297;SDS011;28892;55.640;37.532;2023-04-25T02:23:27;8.65;;;4.85;;
43297;SDS011;28892;55.640;37.532;2023-04-25T02:25:54;7.10;;;4.75;;
43297;SDS011;28892;55.640;37.532;2023-04-25T02:28:21;7.68;;;4.70;;
43297;SDS011;28892;55.640;37.532;2023-04-25T02:30:47;8.27;;;4.55;;
43297;SDS011;28892;55.640;37.532;2023-04-25T02:33:13;7.97;;;4.53;;
43297;SDS011;28892;55.640;37.532;2023-04-25T02:35:38;15.05;;;4.90;;
43297;SDS011;28892;55.640;37.532;2023-04-25T02:38:04;9.48;;;4.65;;
43297;SDS011;28892;55.640;37.532;2023-04-25T02:40:32;10.60;;;5.47;;
43297;SDS011;28892;55.640;37.532;2023-04-25T02:42:58;8.82;;;5.20;;
43297;SDS011;28892;55.640;37.532;2023-04-25T02:45:25;11.52;;;5.40;;
43297;SDS011;28892;55.640;37.532;2023-04-25T02:47:51;7.43;;;4.85;;
43297;SDS011;28892;55.640;37.532;2023-04-25T02:50:18;11.32;;;5.57;;
43297;SDS011;28892;55.640;37.532;2023-04-25T02:52:44;10.30;;;6.15;;
43297;SDS011;28892;55.640;37.532;2023-04-25T02:55:19;9.35;;;5.25;;
43297;SDS011;28892;55.640;37.532;2023-04-25T02:57:46;9.30;;;5.30;;
43297;SDS011;28892;55.640;37.532;2023-04-25T03:00:19;8.68;;;5.25;;
43297;SDS011;28892;55.640;37.532;2023-04-25T03:02:45;8.85;;;5.55;;
43297;SDS011;28892;55.640;37.532;2023-04-25T03:05:11;11.25;;;5.50;;
43297;SDS011;28892;55.640;37.532;2023-04-25T03:07:38;10.63;;;4.88;;
43297;SDS011;28892;55.640;37.532;2023-04-25T03:10:07;10.18;;;5.43;;
43297;SDS011;28892;55.640;37.532;2023-04-25T03:12:34;10.27;;;5.72;;
43297;SDS011;28892;55.640;37.532;2023-04-25T03:15:00;9.32;;;6.32;;
43297;SDS011;28892;55.640;37.532;2023-04-25T03:17:27;11.10;;;6.20;;
43297;SDS011;28892;55.640;37.532;2023-04-25T03:19:53;12.50;;;6.85;;
43297;SDS011;28892;55.640;37.532;2023-04-25T03:22:19;14.85;;;6.72;;
43297;SDS011;28892;55.640;37.532;2023-04-25T03:24:45;11.93;;;6.88;;
43297;SDS011;28892;55.640;37.532;2023-04-25T03:27:11;11.30;;;7.03;;
43297;SDS011;28892;55.640;37.532;2023-04-25T03:29:37;11.68;;;6.85;;
43297;SDS011;28892;55.640;37.532;2023-04-25T03:32:04;10.45;;;7.13;;
43297;SDS011;28892;55.640;37.532;2023-04-25T03:34:30;14.10;;;7.00;;
43297;SDS011;28892;55.640;37.532;2023-04-25T03:36:56;10.68;;;6.75;;
43297;SDS011;28892;55.640;37.532;2023-04-25T03:39:22;12.88;;;7.72;;
43297;SDS011;28892;55.640;37.532;2023-04-25T03:41:50;13.38;;;7.15;;
43297;SDS011;28892;55.640;37.532;2023-04-25T03:44:17;11.98;;;7.47;;
43297;SDS011;28892;55.640;37.532;2023-04-25T03:46:43;15.70;;;7.57;;
43297;SDS011;28892;55.640;37.532;2023-04-25T03:49:10;13.25;;;7.72;;
43297;SDS011;28892;55.640;37.532;2023-04-25T03:51:54;11.50;;;8.40;;
43297;SDS011;28892;55.640;37.532;2023-04-25T03:54:21;11.48;;;8.10;;
43297;SDS011;28892;55.640;37.532;2023-04-25T03:57:02;14.48;;;8.45;;
43297;SDS011;28892;55.640;37.532;2023-04-25T03:59:31;14.48;;;8.80;;
43297;SDS011;28892;55.640;37.532;2023-04-25T04:01:57;11.85;;;8.27;;
43297;SDS011;28892;55.640;37.532;2023-04-25T04:04:23;13.05;;;8.50;;
43297;SDS011;28892;55.640;37.532;2023-04-25T04:06:49;11.85;;;8.10;;
43297;SDS011;28892;55.640;37.532;2023-04-25T04:09:21;10.67;;;7.87;;
43297;SDS011;28892;55.640;37.532;2023-04-25T04:11:47;12.85;;;8.00;;
43297;SDS011;28892;55.640;37.532;2023-04-25T04:17:05;10.43;;;8.23;;
43297;SDS011;28892;55.640;37.532;2023-04-25T04:19:34;15.60;;;8.55;;
43297;SDS011;28892;55.640;37.532;2023-04-25T04:22:14;10.48;;;7.28;;
43297;SDS011;28892;55.640;37.532;2023-04-25T04:24:40;11.68;;;7.60;;
43297;SDS011;28892;55.640;37.532;2023-04-25T04:27:09;12.70;;;9.25;;
43297;SDS011;28892;55.640;37.532;2023-04-25T04:29:50;15.65;;;9.25;;
43297;SDS011;28892;55.640;37.532;2023-04-25T04:32:32;16.95;;;10.27;;
43297;SDS011;28892;55.640;37.532;2023-04-25T04:35:03;33.10;;;10.23;;
43297;SDS011;28892;55.640;37.532;2023-04-25T04:37:30;21.25;;;10.32;;
43297;SDS011;28892;55.640;37.532;2023-04-25T04:39:57;16.88;;;9.60;;
43297;SDS011;28892;55.640;37.532;2023-04-25T04:42:38;13.57;;;9.07;;
43297;SDS011;28892;55.640;37.532;2023-04-25T04:45:13;17.60;;;8.77;;
43297;SDS011;28892;55.640;37.532;2023-04-25T04:48:06;16.15;;;8.07;;
43297;SDS011;28892;55.640;37.532;2023-04-25T04:50:45;9.93;;;7.82;;
43297;SDS011;28892;55.640;37.532;2023-04-25T04:53:39;16.00;;;8.25;;
43297;SDS011;28892;55.640;37.532;2023-04-25T04:56:20;11.15;;;8.05;;
43297;SDS011;28892;55.640;37.532;2023-04-25T04:59:07;14.70;;;8.05;;
43297;SDS011;28892;55.640;37.532;2023-04-25T05:01:46;17.15;;;8.15;;
43297;SDS011;28892;55.640;37.532;2023-04-25T05:04:15;13.77;;;8.20;;
43297;SDS011;28892;55.640;37.532;2023-04-25T05:07:07;16.17;;;7.90;;
43297;SDS011;28892;55.640;37.532;2023-04-25T05:09:49;14.25;;;7.65;;
43297;SDS011;28892;55.640;37.532;2023-04-25T05:12:21;10.95;;;6.95;;
43297;SDS011;28892;55.640;37.532;2023-04-25T05:15:18;11.82;;;7.20;;
43297;SDS011;28892;55.640;37.532;2023-04-25T05:18:02;13.45;;;6.43;;
43297;SDS011;28892;55.640;37.532;2023-04-25T05:20:51;10.88;;;6.82;;
43297;SDS011;28892;55.640;37.532;2023-04-25T05:23:35;16.08;;;6.70;;
43297;SDS011;28892;55.640;37.532;2023-04-25T05:26:23;15.18;;;6.55;;
43297;SDS011;28892;55.640;37.532;2023-04-25T05:29:12;9.75;;;5.50;;
43297;SDS011;28892;55.640;37.532;2023-04-25T05:32:01;13.52;;;5.63;;
43297;SDS011;28892;55.640;37.532;2023-04-25T05:34:28;8.82;;;5.75;;
43297;SDS011;28892;55.640;37.532;2023-04-25T05:36:56;11.63;;;5.85;;
43297;SDS011;28892;55.640;37.532;2023-04-25T05:39:23;12.43;;;5.63;;
43297;SDS011;28892;55.640;37.532;2023-04-25T05:42:14;7.65;;;5.20;;
43297;SDS011;28892;55.640;37.532;2023-04-25T05:44:52;13.73;;;5.65;;
43297;SDS011;28892;55.640;37.532;2023-04-25T05:47:24;10.68;;;5.63;;
43297;SDS011;28892;55.640;37.532;2023-04-25T05:50:05;9.75;;;5.68;;
43297;SDS011;28892;55.640;37.532;2023-04-25T05:53:00;8.25;;;5.45;;
43297;SDS011;28892;55.640;37.532;2023-04-25T05:55:31;9.68;;;5.70;;
43297;SDS011;28892;55.640;37.532;2023-04-25T05:57:59;13.18;;;5.90;;
43297;SDS011;28892;55.640;37.532;2023-04-25T06:00:27;8.75;;;6.07;;
43297;SDS011;28892;55.640;37.532;2023-04-25T06:02:54;12.05;;;5.82;;
43297;SDS011;28892;55.640;37.532;2023-04-25T06:05:20;10.93;;;5.43;;
43297;SDS011;28892;55.640;37.532;2023-04-25T06:07:50;11.02;;;5.82;;
43297;SDS011;28892;55.640;37.532;2023-04-25T06:10:19;9.35;;;5.15;;
43297;SDS011;28892;55.640;37.532;2023-04-25T06:12:45;9.32;;;4.93;;
43297;SDS011;28892;55.640;37.532;2023-04-25T06:15:14;10.20;;;5.28;;
43297;SDS011;28892;55.640;37.532;2023-04-25T06:17:41;8.68;;;4.82;;
43297;SDS011;28892;55.640;37.532;2023-04-25T06:20:07;11.43;;;5.22;;
43297;SDS011;28892;55.640;37.532;2023-04-25T06:22:39;8.95;;;4.95;;
43297;SDS011;28892;55.640;37.532;2023-04-25T06:25:05;8.10;;;5.15;;
43297;SDS011;28892;55.640;37.532;2023-04-25T06:27:33;9.60;;;5.40;;
43297;SDS011;28892;55.640;37.532;2023-04-25T06:30:00;7.45;;;4.90;;
43297;SDS011;28892;55.640;37.532;2023-04-25T06:32:26;8.38;;;4.78;;
43297;SDS011;28892;55.640;37.532;2023-04-25T06:34:56;9.50;;;4.60;;
43297;SDS011;28892;55.640;37.532;2023-04-25T06:37:22;7.80;;;4.55;;
43297;SDS011;28892;55.640;37.532;2023-04-25T06:39:49;7.65;;;4.82;;
43297;SDS011;28892;55.640;37.532;2023-04-25T06:42:16;8.82;;;4.28;;
43297;SDS011;28892;55.640;37.532;2023-04-25T06:45:04;6.53;;;4.30;;
43297;SDS011;28892;55.640;37.532;2023-04-25T06:47:33;6.72;;;3.88;;
43297;SDS011;28892;55.640;37.532;2023-04-25T06:50:00;6.45;;;4.00;;
43297;SDS011;28892;55.640;37.532;2023-04-25T06:52:29;5.90;;;4.03;;
43297;SDS011;28892;55.640;37.532;2023-04-25T06:54:55;9.18;;;3.88;;
43297;SDS011;28892;55.640;37.532;2023-04-25T06:57:36;6.45;;;3.83;;
43297;SDS011;28892;55.640;37.532;2023-04-25T07:00:22;9.57;;;3.50;;
43297;SDS011;28892;55.640;37.532;2023-04-25T07:02:48;8.40;;;5.45;;
43297;SDS011;28892;55.640;37.532;2023-04-25T07:05:16;6.20;;;3.60;;
43297;SDS011;28892;55.640;37.532;2023-04-25T07:07:42;4.35;;;3.67;;
43297;SDS011;28892;55.640;37.532;2023-04-25T07:10:09;5.18;;;3.47;;
43297;SDS011;28892;55.640;37.532;2023-04-25T07:12:40;6.28;;;4.20;;
43297;SDS011;28892;55.640;37.532;2023-04-25T07:15:10;6.85;;;4.40;;
43297;SDS011;28892;55.640;37.532;2023-04-25T07:17:42;9.05;;;5.10;;
43297;SDS011;28892;55.640;37.532;2023-04-25T07:20:16;8.43;;;4.60;;
43297;SDS011;28892;55.640;37.532;2023-04-25T07:22:42;9.75;;;4.60;;
43297;SDS011;28892;55.640;37.532;2023-04-25T07:25:10;9.07;;;4.53;;
43297;SDS011;28892;55.640;37.532;2023-04-25T07:27:36;11.70;;;4.80;;
43297;SDS011;28892;55.640;37.532;2023-04-25T07:30:11;8.70;;;4.70;;
43297;SDS011;28892;55.640;37.532;2023-04-25T07:32:41;10.98;;;5.40;;
43297;SDS011;28892;55.640;37.532;2023-04-25T07:35:10;12.05;;;5.25;;
43297;SDS011;28892;55.640;37.532;2023-04-25T07:37:36;7.97;;;5.30;;
43297;SDS011;28892;55.640;37.532;2023-04-25T07:40:15;8.75;;;5.35;;
43297;SDS011;28892;55.640;37.532;2023-04-25T07:42:46;7.28;;;5.30;;
43297;SDS011;28892;55.640;37.532;2023-04-25T07:45:22;8.98;;;5.47;;
43297;SDS011;28892;55.640;37.532;2023-04-25T07:47:51;11.93;;;5.20;;
43297;SDS011;28892;55.640;37.532;2023-04-25T07:50:18;10.77;;;5.13;;
43297;SDS011;28892;55.640;37.532;2023-04-25T07:52:46;10.00;;;4.80;;
43297;SDS011;28892;55.640;37.532;2023-04-25T07:55:22;7.50;;;4.30;;
43297;SDS011;28892;55.640;37.532;2023-04-25T07:58:02;8.75;;;3.92;;
43297;SDS011;28892;55.640;37.532;2023-04-25T08:00:32;5.50;;;3.63;;
43297;SDS011;28892;55.640;37.532;2023-04-25T08:03:20;11.10;;;3.53;;
43297;SDS011;28892;55.640;37.532;2023-04-25T08:05:49;7.10;;;3.40;;
43297;SDS011;28892;55.640;37.532;2023-04-25T08:08:18;6.53;;;3.40;;
43297;SDS011;28892;55.640;37.532;2023-04-25T08:10:45;9.35;;;3.63;;
43297;SDS011;28892;55.640;37.532;2023-04-25T08:13:17;9.25;;;3.60;;
43297;SDS011;28892;55.640;37.532;2023-04-25T08:15:46;11.68;;;3.78;;
43297;SDS011;28892;55.640;37.532;2023-04-25T08:18:14;7.65;;;3.88;;
43297;SDS011;28892;55.640;37.532;2023-04-25T08:20:41;5.97;;;3.17;;
43297;SDS011;28892;55.640;37.532;2023-04-25T08:23:13;11.18;;;3.97;;
43297;SDS011;28892;55.640;37.532;2023-04-25T08:26:00;4.85;;;3.53;;
43297;SDS011;28892;55.640;37.532;2023-04-25T08:28:27;6.38;;;3.42;;
43297;SDS011;28892;55.640;37.532;2023-04-25T08:30:56;5.53;;;3.83;;
43297;SDS011;28892;55.640;37.532;2023-04-25T08:33:24;5.85;;;3.72;;
43297;SDS011;28892;55.640;37.532;2023-04-25T08:36:00;5.32;;;3.72;;
43297;SDS011;28892;55.640;37.532;2023-04-25T08:38:32;6.38;;;4.10;;
43297;SDS011;28892;55.640;37.532;2023-04-25T08:41:00;7.60;;;3.47;;
43297;SDS011;28892;55.640;37.532;2023-04-25T08:43:42;4.05;;;3.47;;
43297;SDS011;28892;55.640;37.532;2023-04-25T08:47:09;9.98;;;3.72;;
43297;SDS011;28892;55.640;37.532;2023-04-25T08:50:21;5.53;;;3.58;;
43297;SDS011;28892;55.640;37.532;2023-04-25T08:52:53;11.07;;;5.47;;
43297;SDS011;28892;55.640;37.532;2023-04-25T08:55:24;5.53;;;2.97;;
43297;SDS011;28892;55.640;37.532;2023-04-25T09:02:49;5.35;;;3.08;;
43297;SDS011;28892;55.640;37.532;2023-04-25T09:17:57;7.30;;;3.42;;
43297;SDS011;28892;55.640;37.532;2023-04-25T09:20:32;6.82;;;3.45;;
43297;SDS011;28892;55.640;37.532;2023-04-25T09:32:32;4.57;;;3.60;;
43297;SDS011;28892;55.640;37.532;2023-04-25T09:34:58;6.22;;;3.22;;
43297;SDS011;28892;55.640;37.532;2023-04-25T09:37:31;5.28;;;2.80;;
43297;SDS011;28892;55.640;37.532;2023-04-25T09:40:42;5.80;;;3.00;;
43297;SDS011;28892;55.640;37.532;2023-04-25T09:45:42;5.15;;;3.28;;
43297;SDS011;28892;55.640;37.532;2023-04-25T09:48:11;5.82;;;3.80;;
43297;SDS011;28892;55.640;37.532;2023-04-25T09:50:42;5.97;;;3.43;;
43297;SDS011;28892;55.640;37.532;2023-04-25T09:53:10;8.82;;;3.10;;
43297;SDS011;28892;55.640;37.532;2023-04-25T09:55:56;5.78;;;3.50;;
43297;SDS011;28892;55.640;37.532;2023-04-25T09:58:22;4.28;;;2.60;;
43297;SDS011;28892;55.640;37.532;2023-04-25T10:00:50;3.63;;;2.90;;
43297;SDS011;28892;55.640;37.532;2023-04-25T10:03:29;5.25;;;3.65;;
43297;SDS011;28892;55.640;37.532;2023-04-25T10:06:29;4.47;;;3.40;;
43297;SDS011;28892;55.640;37.532;2023-04-25T10:08:56;3.30;;;3.00;;
43297;SDS011;28892;55.640;37.532;2023-04-25T10:11:23;4.00;;;2.67;;
43297;SDS011;28892;55.640;37.532;2023-04-25T10:13:51;12.63;;;3.58;;
43297;SDS011;28892;55.640;37.532;2023-04-25T10:16:18;5.13;;;3.35;;
43297;SDS011;28892;55.640;37.532;2023-04-25T10:18:44;10.02;;;3.70;;
43297;SDS011;28892;55.640;37.532;2023-04-25T10:21:10;5.55;;;3.35;;
43297;SDS011;28892;55.640;37.532;2023-04-25T10:23:46;4.63;;;3.25;;
43297;SDS011;28892;55.640;37.532;2023-04-25T10:27:17;5.55;;;3.30;;
43297;SDS011;28892;55.640;37.532;2023-04-25T10:29:45;5.38;;;3.30;;
43297;SDS011;28892;55.640;37.532;2023-04-25T10:32:26;6.00;;;3.28;;
43297;SDS011;28892;55.640;37.532;2023-04-25T10:34:51;3.83;;;3.13;;
43297;SDS011;28892;55.640;37.532;2023-04-25T10:37:18;3.90;;;3.00;;
43297;SDS011;28892;55.640;37.532;2023-04-25T10:39:44;4.80;;;3.67;;
43297;SDS011;28892;55.640;37.532;2023-04-25T10:42:11;4.30;;;3.17;;
43297;SDS011;28892;55.640;37.532;2023-04-25T10:44:37;7.93;;;3.10;;
43297;SDS011;28892;55.640;37.532;2023-04-25T10:47:07;5.22;;;2.60;;
43297;SDS011;28892;55.640;37.532;2023-04-25T10:49:41;4.55;;;2.80;;
43297;SDS011;28892;55.640;37.532;2023-04-25T10:54:49;6.20;;;3.20;;
43297;SDS011;28892;55.640;37.532;2023-04-25T10:57:37;3.75;;;2.70;;
43297;SDS011;28892;55.640;37.532;2023-04-25T11:00:14;6.95;;;2.80;;
43297;SDS011;28892;55.640;37.532;2023-04-25T11:05:10;3.95;;;2.70;;
43297;SDS011;28892;55.640;37.532;2023-04-25T11:10:19;3.08;;;2.55;;
43297;SDS011;28892;55.640;37.532;2023-04-25T11:12:46;5.55;;;2.83;;
43297;SDS011;28892;55.640;37.532;2023-04-25T11:15:13;6.55;;;2.65;;
43297;SDS011;28892;55.640;37.532;2023-04-25T11:17:39;5.13;;;3.08;;
43297;SDS011;28892;55.640;37.532;2023-04-25T11:20:10;4.35;;;2.90;;
43297;SDS011;28892;55.640;37.532;2023-04-25T11:23:34;4.28;;;2.60;;
43297;SDS011;28892;55.640;37.532;2023-04-25T11:26:00;3.53;;;2.33;;
43297;SDS011;28892;55.640;37.532;2023-04-25T11:28:26;5.65;;;2.50;;
43297;SDS011;28892;55.640;37.532;2023-04-25T11:30:52;4.03;;;2.38;;
43297;SDS011;28892;55.640;37.532;2023-04-25T11:33:22;3.50;;;2.50;;
43297;SDS011;28892;55.640;37.532;2023-04-25T11:35:49;2.65;;;2.30;;
43297;SDS011;28892;55.640;37.532;2023-04-25T11:38:18;4.38;;;2.38;;
43297;SDS011;28892;55.640;37.532;2023-04-25T11:40:48;4.80;;;2.58;;
43297;SDS011;28892;55.640;37.532;2023-04-25T11:43:15;4.55;;;2.47;;
43297;SDS011;28892;55.640;37.532;2023-04-25T11:45:41;5.18;;;2.42;;
43297;SDS011;28892;55.640;37.532;2023-04-25T11:48:07;4.32;;;2.33;;
43297;SDS011;28892;55.640;37.532;2023-04-25T11:50:33;5.40;;;2.20;;
43297;SDS011;28892;55.640;37.532;2023-04-25T11:52:58;5.25;;;2.20;;
43297;SDS011;28892;55.640;37.532;2023-04-25T11:55:24;3.63;;;2.45;;
43297;SDS011;28892;55.640;37.532;2023-04-25T11:57:51;3.70;;;2.40;;
43297;SDS011;28892;55.640;37.532;2023-04-25T12:00:19;3.72;;;2.17;;
43297;SDS011;28892;55.640;37.532;2023-04-25T12:02:56;6.90;;;2.08;;
43297;SDS011;28892;55.640;37.532;2023-04-25T12:05:26;3.30;;;2.35;;
43297;SDS011;28892;55.640;37.532;2023-04-25T12:08:10;5.57;;;2.40;;
43297;SDS011;28892;55.640;37.532;2023-04-25T12:10:43;4.80;;;2.22;;
43297;SDS011;28892;55.640;37.532;2023-04-25T12:13:21;4.77;;;2.27;;
43297;SDS011;28892;55.640;37.532;2023-04-25T12:15:54;4.97;;;2.38;;
43297;SDS011;28892;55.640;37.532;2023-04-25T12:18:22;3.13;;;2.20;;
43297;SDS011;28892;55.640;37.532;2023-04-25T12:20:49;3.97;;;2.25;;
43297;SDS011;28892;55.640;37.532;2023-04-25T12:23:15;3.17;;;2.00;;
43297;SDS011;28892;55.640;37.532;2023-04-25T12:25:50;3.22;;;2.10;;
43297;SDS011;28892;55.640;37.532;2023-04-25T12:28:19;3.55;;;2.13;;
43297;SDS011;28892;55.640;37.532;2023-04-25T12:33:23;6.80;;;3.72;;
43297;SDS011;28892;55.640;37.532;2023-04-25T12:35:53;9.77;;;2.75;;
43297;SDS011;28892;55.640;37.532;2023-04-25T12:38:29;8.63;;;3.33;;
43297;SDS011;28892;55.640;37.532;2023-04-25T12:40:58;6.78;;;2.75;;
43297;SDS011;28892;55.640;37.532;2023-04-25T12:43:28;5.88;;;2.90;;
43297;SDS011;28892;55.640;37.532;2023-04-25T12:46:00;9.90;;;3.90;;
43297;SDS011;28892;55.640;37.532;2023-04-25T12:48:28;8.23;;;3.20;;
43297;SDS011;28892;55.640;37.532;2023-04-25T12:53:56;6.55;;;3.05;;
43297;SDS011;28892;55.640;37.532;2023-04-25T12:56:22;9.68;;;2.67;;
43297;SDS011;28892;55.640;37.532;2023-04-25T12:58:48;8.98;;;3.60;;
43297;SDS011;28892;55.640;37.532;2023-04-25T13:01:14;5.85;;;2.42;;
43297;SDS011;28892;55.640;37.532;2023-04-25T13:03:40;6.70;;;2.95;;
43297;SDS011;28892;55.640;37.532;2023-04-25T13:06:06;5.85;;;2.72;;
43297;SDS011;28892;55.640;37.532;2023-04-25T13:08:32;4.95;;;2.30;;
43297;SDS011;28892;55.640;37.532;2023-04-25T13:10:58;5.88;;;2.65;;
43297;SDS011;28892;55.640;37.532;2023-04-25T13:13:25;7.30;;;2.60;;
43297;SDS011;28892;55.640;37.532;2023-04-25T13:15:52;5.40;;;2.50;;
43297;SDS011;28892;55.640;37.532;2023-04-25T13:18:20;6.03;;;2.28;;
43297;SDS011;28892;55.640;37.532;2023-04-25T13:20:49;6.95;;;2.35;;
43297;SDS011;28892;55.640;37.532;2023-04-25T13:23:19;5.53;;;2.30;;
43297;SDS011;28892;55.640;37.532;2023-04-25T13:26:03;6.50;;;2.50;;
43297;SDS011;28892;55.640;37.532;2023-04-25T13:28:29;6.93;;;3.38;;
43297;SDS011;28892;55.640;37.532;2023-04-25T13:30:57;6.72;;;2.97;;
43297;SDS011;28892;55.640;37.532;2023-04-25T13:33:24;3.88;;;2.70;;
43297;SDS011;28892;55.640;37.532;2023-04-25T13:35:54;6.43;;;2.65;;
43297;SDS011;28892;55.640;37.532;2023-04-25T13:38:22;5.00;;;3.40;;
43297;SDS011;28892;55.640;37.532;2023-04-25T13:40:51;8.35;;;3.38;;
43297;SDS011;28892;55.640;37.532;2023-04-25T13:43:19;6.07;;;3.30;;
43297;SDS011;28892;55.640;37.532;2023-04-25T13:45:46;5.63;;;3.30;;
43297;SDS011;28892;55.640;37.532;2023-04-25T13:48:12;4.38;;;3.25;;
43297;SDS011;28892;55.640;37.532;2023-04-25T13:50:37;6.07;;;3.10;;
43297;SDS011;28892;55.640;37.532;2023-04-25T13:53:03;3.40;;;3.00;;
43297;SDS011;28892;55.640;37.532;2023-04-25T13:55:29;9.80;;;3.30;;
43297;SDS011;28892;55.640;37.532;2023-04-25T13:57:55;5.60;;;3.22;;
43297;SDS011;28892;55.640;37.532;2023-04-25T14:00:21;3.10;;;2.63;;
43297;SDS011;28892;55.640;37.532;2023-04-25T14:02:47;5.72;;;2.90;;
43297;SDS011;28892;55.640;37.532;2023-04-25T14:05:14;7.18;;;3.17;;
43297;SDS011;28892;55.640;37.532;2023-04-25T14:07:40;7.22;;;3.33;;
43297;SDS011;28892;55.640;37.532;2023-04-25T14:10:06;4.65;;;3.10;;
43297;SDS011;28892;55.640;37.532;2023-04-25T14:12:33;8.52;;;2.90;;
43297;SDS011;28892;55.640;37.532;2023-04-25T14:14:59;7.07;;;2.90;;
43297;SDS011;28892;55.640;37.532;2023-04-25T14:17:31;5.28;;;2.60;;
43297;SDS011;28892;55.640;37.532;2023-04-25T14:19:57;5.97;;;3.15;;
43297;SDS011;28892;55.640;37.532;2023-04-25T14:22:24;4.18;;;2.75;;
43297;SDS011;28892;55.640;37.532;2023-04-25T14:24:50;3.70;;;2.72;;
43297;SDS011;28892;55.640;37.532;2023-04-25T14:27:17;6.68;;;2.83;;
43297;SDS011;28892;55.640;37.532;2023-04-25T14:29:54;4.68;;;2.75;;
43297;SDS011;28892;55.640;37.532;2023-04-25T14:32:22;5.82;;;2.78;;
43297;SDS011;28892;55.640;37.532;2023-04-25T14:34:53;3.63;;;2.50;;
43297;SDS011;28892;55.640;37.532;2023-04-25T14:37:19;5.35;;;2.42;;
43297;SDS011;28892;55.640;37.532;2023-04-25T14:39:45;5.28;;;3.10;;
43297;SDS011;28892;55.640;37.532;2023-04-25T14:42:11;7.15;;;4.38;;
43297;SDS011;28892;55.640;37.532;2023-04-25T14:44:37;6.75;;;3.03;;
43297;SDS011;28892;55.640;37.532;2023-04-25T14:47:03;5.85;;;2.55;;
43297;SDS011;28892;55.640;37.532;2023-04-25T14:49:29;6.90;;;2.97;;
43297;SDS011;28892;55.640;37.532;2023-04-25T14:51:55;6.85;;;3.05;;
43297;SDS011;28892;55.640;37.532;2023-04-25T14:54:21;5.32;;;3.00;;
43297;SDS011;28892;55.640;37.532;2023-04-25T14:56:52;4.88;;;2.83;;
43297;SDS011;28892;55.640;37.532;2023-04-25T14:59:24;6.22;;;3.67;;
43297;SDS011;28892;55.640;37.532;2023-04-25T15:01:50;6.63;;;3.60;;
43297;SDS011;28892;55.640;37.532;2023-04-25T15:04:20;6.55;;;4.15;;
43297;SDS011;28892;55.640;37.532;2023-04-25T15:06:51;5.75;;;4.10;;
43297;SDS011;28892;55.640;37.532;2023-04-25T15:09:18;7.40;;;4.10;;
43297;SDS011;28892;55.640;37.532;2023-04-25T15:11:44;5.95;;;3.75;;
43297;SDS011;28892;55.640;37.532;2023-04-25T15:14:12;8.40;;;3.85;;
43297;SDS011;28892;55.640;37.532;2023-04-25T15:16:38;8.15;;;3.95;;
43297;SDS011;28892;55.640;37.532;2023-04-25T15:19:06;5.47;;;3.80;;
43297;SDS011;28892;55.640;37.532;2023-04-25T15:21:32;8.07;;;3.80;;
43297;SDS011;28892;55.640;37.532;2023-04-25T15:23:58;7.40;;;3.95;;
43297;SDS011;28892;55.640;37.532;2023-04-25T15:26:26;4.65;;;3.20;;
43297;SDS011;28892;55.640;37.532;2023-04-25T15:28:53;6.53;;;4.10;;
43297;SDS011;28892;55.640;37.532;2023-04-25T15:31:21;4.85;;;3.90;;
43297;SDS011;28892;55.640;37.532;2023-04-25T15:33:47;5.07;;;3.90;;
43297;SDS011;28892;55.640;37.532;2023-04-25T15:36:13;5.00;;;4.00;;